createdAt,value
2023-03-07T00:00:14.938Z,0.80
2023-03-07T00:02:41.741Z,0.76
2023-03-07T00:05:08.855Z,0.90
2023-03-07T00:07:35.602Z,0.84
2023-03-07T00:10:02.362Z,0.60
2023-03-07T00:12:29.206Z,0.70
2023-03-07T00:14:56.376Z,0.78
2023-03-07T00:17:23.108Z,0.63
2023-03-07T00:19:49.963Z,0.70
2023-03-07T00:22:16.695Z,0.66
2023-03-07T00:24:43.401Z,0.58
2023-03-07T00:27:10.507Z,0.52
2023-03-07T00:29:37.246Z,0.60
2023-03-07T00:32:04.200Z,0.57
2023-03-07T00:34:30.972Z,0.65
2023-03-07T00:36:57.735Z,0.65
2023-03-07T00:39:24.461Z,0.71
2023-03-07T00:41:51.125Z,0.69
2023-03-07T00:44:17.860Z,0.75
2023-03-07T00:46:44.592Z,0.74
2023-03-07T00:49:11.283Z,0.77
2023-03-07T00:51:37.998Z,0.68
2023-03-07T00:54:04.760Z,0.84
2023-03-07T00:56:31.778Z,0.81
2023-03-07T00:58:58.496Z,0.75
2023-03-07T01:01:25.922Z,0.72
2023-03-07T01:03:56.454Z,0.55
2023-03-07T01:06:31.452Z,0.60
2023-03-07T01:09:00.672Z,0.62
2023-03-07T01:11:28.357Z,0.56
2023-03-07T01:13:59.583Z,0.57
2023-03-07T01:16:29.101Z,0.51
2023-03-07T01:18:58.976Z,0.51
2023-03-07T01:21:27.134Z,0.59
2023-03-07T01:23:54.446Z,0.57
2023-03-07T01:26:23.666Z,0.59
2023-03-07T01:28:51.613Z,0.47
2023-03-07T01:31:18.511Z,0.52
2023-03-07T01:33:50.528Z,0.55
2023-03-07T01:36:19.914Z,0.50
2023-03-07T01:38:47.934Z,0.34
2023-03-07T01:41:15.039Z,0.48
2023-03-07T01:43:42.087Z,0.51
2023-03-07T01:46:18.027Z,0.54
2023-03-07T01:48:56.310Z,0.59
2023-03-07T01:51:23.925Z,0.45
2023-03-07T01:53:53.556Z,0.46
2023-03-07T01:56:21.223Z,0.49
2023-03-07T01:58:48.043Z,0.52
2023-03-07T02:01:15.249Z,0.50
2023-03-07T02:03:53.143Z,0.49
2023-03-07T02:06:20.165Z,0.55
2023-03-07T02:08:49.466Z,0.60
2023-03-07T02:11:16.740Z,0.52
2023-03-07T02:13:43.592Z,0.58
2023-03-07T02:16:10.439Z,0.59
2023-03-07T02:18:42.449Z,0.61
2023-03-07T02:21:12.454Z,0.63
2023-03-07T02:24:04.164Z,0.35
2023-03-07T02:26:30.871Z,0.44
2023-03-07T02:28:59.244Z,0.53
2023-03-07T02:31:26.595Z,0.58
2023-03-07T02:33:53.536Z,0.57
2023-03-07T02:36:26.874Z,0.45
2023-03-07T02:38:55.201Z,0.54
2023-03-07T02:41:26.330Z,0.47
2023-03-07T02:43:53.036Z,0.49
2023-03-07T02:46:20.536Z,0.50
2023-03-07T02:48:47.434Z,0.50
2023-03-07T02:51:14.373Z,0.44
2023-03-07T02:53:41.185Z,0.45
2023-03-07T02:56:07.966Z,0.43
2023-03-07T02:58:34.736Z,0.28
2023-03-07T03:01:01.506Z,0.21
2023-03-07T03:03:28.351Z,0.14
2023-03-07T03:05:55.058Z,0.18
2023-03-07T03:08:21.839Z,0.16
2023-03-07T03:10:53.860Z,0.24
2023-03-07T03:13:21.327Z,0.30
2023-03-07T03:15:48.338Z,0.32
2023-03-07T03:18:15.292Z,0.26
2023-03-07T03:20:42.691Z,0.17
2023-03-07T03:23:09.475Z,0.19
2023-03-07T03:25:36.772Z,0.27
2023-03-07T03:28:04.633Z,0.33
2023-03-07T03:30:32.617Z,0.32
2023-03-07T03:32:59.381Z,0.26
2023-03-07T03:35:26.107Z,0.21
2023-03-07T03:37:52.838Z,0.25
2023-03-07T03:40:19.759Z,0.20
2023-03-07T03:42:46.669Z,-0.04
2023-03-07T03:45:15.064Z,0.28
2023-03-07T03:47:41.828Z,0.08
2023-03-07T03:50:09.370Z,0.00
2023-03-07T03:52:36.660Z,-0.07
2023-03-07T03:55:04.096Z,-0.15
2023-03-07T03:57:30.809Z,-0.17
2023-03-07T03:59:57.650Z,-0.21
2023-03-07T04:02:25.000Z,-0.17
2023-03-07T04:04:51.813Z,-0.11
2023-03-07T04:07:18.557Z,-0.15
2023-03-07T04:09:45.356Z,-0.13
2023-03-07T04:12:12.386Z,-0.12
2023-03-07T04:14:39.035Z,-0.21
2023-03-07T04:17:05.812Z,-0.16
2023-03-07T04:19:33.158Z,-0.22
2023-03-07T04:22:00.310Z,-0.26
2023-03-07T04:24:27.101Z,-0.40
2023-03-07T04:26:53.806Z,-0.42
2023-03-07T04:29:20.595Z,-0.31
2023-03-07T04:31:47.373Z,-0.25
2023-03-07T04:34:14.185Z,-0.37
2023-03-07T04:36:40.905Z,-0.49
2023-03-07T04:39:07.679Z,-0.41
2023-03-07T04:41:34.821Z,-0.39
2023-03-07T04:44:01.732Z,-0.39
2023-03-07T04:46:28.613Z,-0.47
2023-03-07T04:48:55.338Z,-0.44
2023-03-07T04:51:22.415Z,-0.45
2023-03-07T04:53:49.097Z,-0.39
2023-03-07T04:56:16.429Z,-0.38
2023-03-07T04:58:44.084Z,-0.38
2023-03-07T05:01:11.427Z,-0.37
2023-03-07T05:03:40.017Z,-0.31
2023-03-07T05:06:08.850Z,-0.37
2023-03-07T05:08:36.030Z,-0.24
2023-03-07T05:11:02.941Z,-0.31
2023-03-07T05:13:29.716Z,-0.31
2023-03-07T05:15:58.306Z,-0.22
2023-03-07T05:18:26.049Z,-0.11
2023-03-07T05:20:52.931Z,-0.14
2023-03-07T05:23:19.924Z,-0.07
2023-03-07T05:25:50.081Z,-0.02
2023-03-07T05:28:17.436Z,-0.11
2023-03-07T05:30:44.844Z,-0.14
2023-03-07T05:33:11.745Z,-0.06
2023-03-07T05:35:39.514Z,-0.05
2023-03-07T05:38:06.797Z,-0.07
2023-03-07T05:40:33.566Z,-0.05
2023-03-07T05:43:00.187Z,-0.05
2023-03-07T05:45:26.869Z,-0.17
2023-03-07T05:47:53.576Z,0.03
2023-03-07T05:50:21.146Z,0.07
2023-03-07T05:52:48.120Z,0.08
2023-03-07T05:55:14.836Z,0.04
2023-03-07T05:57:41.546Z,0.06
2023-03-07T06:00:08.917Z,-0.06
2023-03-07T06:02:35.572Z,-0.02
2023-03-07T06:05:02.260Z,0.00
2023-03-07T06:07:29.028Z,0.00
2023-03-07T06:09:55.669Z,0.09
2023-03-07T06:12:22.366Z,0.18
2023-03-07T06:14:49.179Z,0.21
2023-03-07T06:17:15.992Z,0.12
2023-03-07T06:19:42.704Z,0.14
2023-03-07T06:22:09.341Z,0.16
2023-03-07T06:24:36.090Z,0.27
2023-03-07T06:27:02.913Z,0.28
2023-03-07T06:29:29.638Z,0.32
2023-03-07T06:31:56.505Z,0.25
2023-03-07T06:34:23.179Z,0.29
2023-03-07T06:36:49.750Z,0.36
2023-03-07T06:39:21.241Z,0.41
2023-03-07T06:41:51.513Z,0.44
2023-03-07T06:44:18.370Z,0.46
2023-03-07T06:46:45.982Z,0.46
2023-03-07T06:49:12.814Z,0.60
2023-03-07T06:51:39.630Z,0.79
2023-03-07T06:54:06.402Z,0.61
2023-03-07T06:56:34.434Z,0.65
2023-03-07T06:59:01.172Z,0.76
2023-03-07T07:01:27.924Z,0.69
2023-03-07T07:03:54.614Z,0.85
2023-03-07T07:06:21.366Z,0.91
2023-03-07T07:08:48.061Z,1.07
2023-03-07T07:11:14.750Z,1.15
2023-03-07T07:13:41.438Z,1.18
2023-03-07T07:16:08.888Z,1.05
2023-03-07T07:18:35.661Z,1.05
2023-03-07T07:21:02.598Z,0.97
2023-03-07T07:23:29.332Z,0.99
2023-03-07T07:25:56.014Z,1.17
2023-03-07T07:28:22.865Z,1.28
2023-03-07T07:30:49.571Z,1.26
2023-03-07T07:33:17.058Z,1.46
2023-03-07T07:35:44.678Z,1.49
2023-03-07T07:38:12.162Z,1.50
2023-03-07T07:40:39.305Z,1.77
2023-03-07T07:43:06.210Z,2.07
2023-03-07T07:45:33.044Z,2.49
2023-03-07T07:47:59.706Z,2.59
2023-03-07T07:50:26.416Z,3.04
2023-03-07T07:52:54.426Z,3.03
2023-03-07T07:55:21.393Z,3.33
2023-03-07T07:57:48.062Z,2.99
2023-03-07T08:00:19.559Z,3.16
2023-03-07T08:02:50.107Z,3.35
2023-03-07T08:05:18.595Z,3.19
2023-03-07T08:07:45.640Z,3.48
2023-03-07T08:10:16.094Z,3.63
2023-03-07T08:12:44.087Z,3.41
2023-03-07T08:15:11.442Z,3.32
2023-03-07T08:17:38.176Z,3.44
2023-03-07T08:20:09.345Z,3.60
2023-03-07T08:22:37.208Z,3.93
2023-03-07T08:25:07.456Z,3.90
2023-03-07T08:27:34.415Z,3.96
2023-03-07T08:30:01.449Z,3.80
2023-03-07T08:32:28.596Z,3.66
2023-03-07T08:34:55.336Z,4.26
2023-03-07T08:37:21.948Z,4.08
2023-03-07T08:39:48.759Z,4.50
2023-03-07T08:42:15.557Z,4.94
2023-03-07T08:44:42.330Z,5.05
2023-03-07T08:47:11.516Z,5.02
2023-03-07T08:49:38.387Z,5.20
2023-03-07T08:52:05.364Z,4.72
2023-03-07T08:54:32.632Z,5.44
2023-03-07T08:57:00.570Z,5.53
2023-03-07T08:59:27.454Z,5.49
2023-03-07T09:01:55.679Z,5.42
2023-03-07T09:04:22.573Z,5.81
2023-03-07T09:06:49.329Z,5.55
2023-03-07T09:09:16.167Z,6.30
2023-03-07T09:11:42.950Z,6.48
2023-03-07T09:14:09.759Z,6.35
2023-03-07T09:16:36.452Z,6.35
2023-03-07T09:19:03.788Z,6.93
2023-03-07T09:21:30.530Z,7.00
2023-03-07T09:23:57.261Z,7.16
2023-03-07T09:26:24.002Z,6.87
2023-03-07T09:28:50.691Z,6.78
2023-03-07T09:31:17.496Z,7.68
2023-03-07T09:33:46.638Z,7.75
2023-03-07T09:36:13.990Z,7.17
2023-03-07T09:38:40.762Z,7.23
2023-03-07T09:41:21.337Z,6.97
2023-03-07T09:43:55.065Z,7.19
2023-03-07T09:46:24.853Z,7.61
2023-03-07T09:49:21.873Z,7.56
2023-03-07T09:51:51.848Z,7.39
2023-03-07T09:54:40.395Z,7.28
2023-03-07T09:57:17.815Z,7.27
2023-03-07T09:59:51.164Z,8.02
2023-03-07T10:02:26.495Z,7.88
2023-03-07T10:04:59.321Z,8.09
2023-03-07T10:07:26.975Z,8.76
2023-03-07T10:10:02.468Z,8.26
2023-03-07T10:13:07.898Z,8.50
2023-03-07T10:15:54.904Z,8.67
2023-03-07T10:18:31.698Z,8.87
2023-03-07T10:21:04.427Z,8.99
2023-03-07T10:23:42.377Z,8.24
2023-03-07T10:26:18.702Z,8.66
2023-03-07T10:28:45.937Z,8.49
2023-03-07T10:31:25.451Z,9.05
2023-03-07T10:33:53.819Z,8.82
2023-03-07T10:36:33.449Z,8.57
2023-03-07T10:39:37.999Z,8.84
2023-03-07T10:42:04.837Z,9.14
2023-03-07T10:44:34.253Z,9.65
2023-03-07T10:47:01.389Z,8.88
2023-03-07T10:49:40.148Z,9.42
2023-03-07T10:52:18.080Z,9.88
2023-03-07T10:54:44.743Z,10.14
2023-03-07T10:57:16.885Z,9.79
2023-03-07T10:59:48.610Z,10.14
2023-03-07T11:02:45.529Z,9.36
2023-03-07T11:05:32.962Z,9.45
2023-03-07T11:08:00.547Z,9.88
2023-03-07T11:10:39.679Z,9.65
2023-03-07T11:13:14.520Z,9.30
2023-03-07T11:15:41.282Z,9.58
2023-03-07T11:18:28.633Z,9.16
2023-03-07T11:20:55.955Z,9.84
2023-03-07T11:23:30.809Z,10.16
2023-03-07T11:26:22.010Z,9.74
2023-03-07T11:29:04.675Z,9.26
2023-03-07T11:32:04.666Z,9.66
2023-03-07T11:34:49.300Z,10.15
2023-03-07T11:37:37.325Z,9.91
2023-03-07T11:40:13.103Z,10.24
2023-03-07T11:42:50.568Z,10.36
2023-03-07T11:45:26.276Z,10.99
2023-03-07T11:48:27.017Z,10.31
2023-03-07T11:51:00.203Z,10.73
2023-03-07T11:53:40.406Z,10.59
2023-03-07T11:56:24.920Z,10.76
2023-03-07T11:59:24.429Z,11.16
2023-03-07T12:01:59.301Z,10.67
2023-03-07T12:04:38.253Z,11.07
2023-03-07T12:07:14.021Z,11.15
2023-03-07T12:10:17.665Z,11.36
2023-03-07T12:12:47.052Z,11.23
2023-03-07T12:15:48.110Z,11.68
2023-03-07T12:18:44.582Z,11.13
2023-03-07T12:21:28.693Z,10.71
2023-03-07T12:24:25.390Z,10.80
2023-03-07T12:27:01.694Z,11.24
2023-03-07T12:29:38.467Z,11.15
2023-03-07T12:32:10.900Z,11.47
2023-03-07T12:34:44.099Z,11.57
2023-03-07T12:37:18.861Z,11.86
2023-03-07T12:39:57.553Z,12.13
2023-03-07T12:42:35.536Z,11.66
2023-03-07T12:45:26.846Z,11.25
2023-03-07T12:47:54.104Z,11.19
2023-03-07T12:50:46.180Z,11.06
2023-03-07T12:53:22.443Z,10.94
2023-03-07T12:55:57.671Z,11.23
2023-03-07T12:58:57.550Z,11.43
2023-03-07T13:01:32.049Z,10.92
2023-03-07T13:04:07.955Z,10.84
2023-03-07T13:06:38.506Z,10.63
2023-03-07T13:09:05.555Z,11.39
2023-03-07T13:11:34.402Z,11.56
2023-03-07T13:14:02.980Z,11.50
2023-03-07T13:17:00.300Z,11.41
2023-03-07T13:19:39.398Z,11.60
2023-03-07T13:22:15.201Z,11.94
2023-03-07T13:24:43.240Z,11.55
2023-03-07T13:27:20.907Z,11.09
2023-03-07T13:30:18.259Z,11.63
2023-03-07T13:32:51.191Z,11.23
2023-03-07T13:35:39.409Z,11.22
2023-03-07T13:38:24.219Z,11.00
2023-03-07T13:40:54.894Z,11.02
2023-03-07T13:43:27.573Z,10.63
2023-03-07T13:45:59.435Z,10.99
2023-03-07T13:48:31.601Z,11.31
2023-03-07T13:51:01.209Z,10.98
2023-03-07T13:53:27.829Z,11.00
2023-03-07T13:56:17.984Z,11.17
2023-03-07T13:58:50.301Z,10.79
2023-03-07T14:01:19.340Z,10.93
2023-03-07T14:03:49.565Z,11.20
2023-03-07T14:06:32.316Z,11.34
2023-03-07T14:09:02.244Z,11.25
2023-03-07T14:11:53.248Z,11.29
2023-03-07T14:14:25.893Z,11.37
2023-03-07T14:17:20.600Z,11.20
2023-03-07T14:20:18.055Z,11.15
2023-03-07T14:23:03.173Z,11.07
2023-03-07T14:25:34.991Z,10.85
2023-03-07T14:28:05.737Z,10.89
2023-03-07T14:30:33.901Z,11.09
2023-03-07T14:33:01.442Z,11.16
2023-03-07T14:35:42.825Z,11.01
2023-03-07T14:38:21.365Z,11.18
2023-03-07T14:41:29.741Z,11.30
2023-03-07T14:44:10.795Z,11.19
2023-03-07T14:46:56.724Z,11.12
2023-03-07T14:49:33.357Z,11.08
2023-03-07T14:52:03.297Z,11.21
2023-03-07T14:54:34.782Z,11.13
2023-03-07T14:57:03.639Z,10.88
2023-03-07T14:59:30.994Z,10.81
2023-03-07T15:01:57.913Z,10.79
2023-03-07T15:04:30.283Z,10.98
2023-03-07T15:07:02.169Z,11.09
2023-03-07T15:09:30.102Z,11.29
2023-03-07T15:12:20.613Z,11.23
2023-03-07T15:14:52.812Z,11.11
2023-03-07T15:17:23.605Z,10.96
2023-03-07T15:19:54.939Z,11.10
2023-03-07T15:22:27.843Z,10.81
2023-03-07T15:24:54.816Z,10.63
2023-03-07T15:27:28.062Z,10.53
2023-03-07T15:29:55.444Z,10.59
2023-03-07T15:32:41.215Z,10.55
2023-03-07T15:35:07.928Z,10.45
2023-03-07T15:37:36.585Z,10.28
2023-03-07T15:40:09.478Z,10.11
2023-03-07T15:42:55.754Z,10.11
2023-03-07T15:45:32.731Z,9.72
2023-03-07T15:48:02.798Z,9.74
2023-03-07T15:50:29.897Z,9.57
2023-03-07T15:53:02.129Z,9.27
2023-03-07T15:55:29.445Z,9.00
2023-03-07T15:58:05.056Z,8.94
2023-03-07T16:00:37.218Z,8.74
2023-03-07T16:03:22.135Z,8.67
2023-03-07T16:05:49.636Z,8.57
2023-03-07T16:08:17.942Z,8.54
2023-03-07T16:10:50.893Z,8.44
2023-03-07T16:13:20.676Z,8.42
2023-03-07T16:16:05.684Z,8.38
2023-03-07T16:18:33.000Z,8.27
2023-03-07T16:21:00.207Z,8.12
2023-03-07T16:23:30.920Z,8.04
2023-03-07T16:25:59.482Z,8.25
2023-03-07T16:28:26.443Z,8.20
2023-03-07T16:30:53.185Z,8.07
2023-03-07T16:33:20.032Z,7.88
2023-03-07T16:35:47.781Z,7.83
2023-03-07T16:38:14.556Z,7.90
2023-03-07T16:40:43.543Z,7.79
2023-03-07T16:43:27.248Z,7.67
2023-03-07T16:45:55.426Z,7.60
2023-03-07T16:48:22.305Z,7.53
2023-03-07T16:50:49.146Z,7.46
2023-03-07T16:53:16.498Z,7.40
2023-03-07T16:55:43.341Z,7.25
2023-03-07T16:58:20.408Z,7.10
2023-03-07T17:00:47.128Z,6.89
2023-03-07T17:03:13.925Z,6.82
2023-03-07T17:05:40.628Z,6.68
2023-03-07T17:08:08.432Z,6.47
2023-03-07T17:10:36.839Z,6.20
2023-03-07T17:13:06.542Z,6.45
2023-03-07T17:15:33.387Z,6.39
2023-03-07T17:18:00.888Z,6.05
2023-03-07T17:20:28.029Z,5.88
2023-03-07T17:22:54.904Z,5.70
2023-03-07T17:25:23.002Z,5.48
2023-03-07T17:28:00.464Z,5.64
2023-03-07T17:30:29.409Z,5.67
2023-03-07T17:32:56.804Z,5.60
2023-03-07T17:35:24.000Z,5.11
2023-03-07T17:37:53.073Z,5.31
2023-03-07T17:40:21.069Z,5.26
2023-03-07T17:42:51.896Z,5.35
2023-03-07T17:45:19.103Z,5.23
2023-03-07T17:47:50.327Z,5.25
2023-03-07T17:50:19.548Z,5.11
2023-03-07T17:52:46.359Z,5.26
2023-03-07T17:55:14.989Z,4.88
2023-03-07T17:57:41.794Z,4.76
2023-03-07T18:00:14.226Z,4.82
2023-03-07T18:02:43.835Z,4.87
2023-03-07T18:05:12.960Z,4.95
2023-03-07T18:07:40.831Z,4.91
2023-03-07T18:10:09.534Z,4.74
2023-03-07T18:12:39.354Z,4.56
2023-03-07T18:15:07.974Z,4.45
2023-03-07T18:17:46.990Z,4.61
2023-03-07T18:20:15.311Z,4.57
2023-03-07T18:22:42.851Z,4.53
2023-03-07T18:25:13.353Z,4.45
2023-03-07T18:27:40.093Z,4.31
2023-03-07T18:30:07.294Z,4.16
2023-03-07T18:32:34.399Z,4.13
2023-03-07T18:35:01.204Z,4.24
2023-03-07T18:37:28.852Z,4.15
2023-03-07T18:39:55.909Z,3.93
2023-03-07T18:42:22.683Z,4.16
2023-03-07T18:44:49.407Z,4.26
2023-03-07T18:47:16.077Z,4.37
2023-03-07T18:49:42.839Z,4.28
2023-03-07T18:52:09.606Z,4.37
2023-03-07T18:54:36.354Z,4.18
2023-03-07T18:57:03.079Z,4.11
2023-03-07T18:59:29.866Z,4.14
2023-03-07T19:01:56.702Z,4.19
2023-03-07T19:04:23.453Z,4.02
2023-03-07T19:06:50.076Z,4.02
2023-03-07T19:09:19.502Z,4.03
2023-03-07T19:11:47.172Z,3.97
2023-03-07T19:14:14.092Z,3.97
2023-03-07T19:16:41.703Z,4.10
2023-03-07T19:19:08.509Z,4.18
2023-03-07T19:21:35.331Z,4.21
2023-03-07T19:24:04.508Z,4.30
2023-03-07T19:26:31.403Z,4.37
2023-03-07T19:28:58.222Z,4.39
2023-03-07T19:31:29.825Z,4.40
2023-03-07T19:33:56.996Z,4.14
2023-03-07T19:36:31.098Z,4.12
2023-03-07T19:38:59.852Z,4.22
2023-03-07T19:41:28.862Z,4.25
2023-03-07T19:43:57.278Z,4.23
2023-03-07T19:46:24.427Z,4.31
2023-03-07T19:48:51.087Z,4.38
2023-03-07T19:51:20.523Z,4.42
2023-03-07T19:53:47.732Z,4.39
2023-03-07T19:56:18.139Z,4.34
2023-03-07T19:58:44.848Z,4.35
2023-03-07T20:01:14.650Z,4.33
2023-03-07T20:03:42.757Z,4.35
2023-03-07T20:06:12.457Z,4.36
2023-03-07T20:08:39.152Z,4.39
2023-03-07T20:11:17.230Z,4.44
2023-03-07T20:13:46.040Z,4.50
2023-03-07T20:16:15.093Z,4.52
2023-03-07T20:18:42.149Z,4.51
2023-03-07T20:21:14.274Z,4.53
2023-03-07T20:23:43.788Z,4.47
2023-03-07T20:26:16.887Z,4.35
2023-03-07T20:28:44.033Z,4.29
2023-03-07T20:31:11.377Z,4.30
2023-03-07T20:33:39.921Z,4.32
2023-03-07T20:36:09.847Z,4.41
2023-03-07T20:38:38.408Z,4.39
2023-03-07T20:41:07.338Z,4.38
2023-03-07T20:43:34.468Z,4.34
2023-03-07T20:46:12.561Z,4.31
2023-03-07T20:48:40.572Z,4.37
2023-03-07T20:51:18.466Z,4.36
2023-03-07T20:53:50.559Z,4.28
2023-03-07T20:56:20.595Z,4.24
2023-03-07T20:58:48.711Z,4.12
2023-03-07T21:01:17.773Z,3.89
2023-03-07T21:03:44.582Z,3.83
2023-03-07T21:06:11.665Z,3.81
2023-03-07T21:08:38.369Z,3.86
2023-03-07T21:11:06.885Z,3.95
2023-03-07T21:13:36.095Z,3.97
2023-03-07T21:16:06.366Z,3.99
2023-03-07T21:18:34.022Z,3.96
2023-03-07T21:21:02.368Z,3.80
2023-03-07T21:23:29.291Z,3.68
2023-03-07T21:26:19.536Z,3.65
2023-03-07T21:28:46.507Z,3.65
2023-03-07T21:31:13.218Z,3.66
2023-03-07T21:33:42.240Z,3.72
2023-03-07T21:36:09.856Z,3.81
2023-03-07T21:38:38.231Z,3.75
2023-03-07T21:41:05.547Z,3.73
2023-03-07T21:43:32.441Z,3.65
2023-03-07T21:46:03.538Z,3.73
2023-03-07T21:48:30.649Z,3.69
2023-03-07T21:50:57.295Z,3.70
2023-03-07T21:53:23.981Z,3.82
2023-03-07T21:55:56.903Z,3.88
2023-03-07T21:58:24.378Z,3.90
2023-03-07T22:00:51.697Z,3.89
2023-03-07T22:03:19.036Z,3.82
2023-03-07T22:05:46.124Z,3.77
2023-03-07T22:08:12.881Z,3.68
2023-03-07T22:10:39.495Z,3.71
2023-03-07T22:13:06.981Z,3.71
2023-03-07T22:15:33.909Z,3.80
2023-03-07T22:18:00.547Z,3.81
2023-03-07T22:20:27.233Z,3.71
2023-03-07T22:22:53.924Z,3.79
2023-03-07T22:25:20.888Z,3.85
2023-03-07T22:27:47.500Z,3.88
2023-03-07T22:30:14.724Z,3.70
2023-03-07T22:32:44.625Z,3.69
2023-03-07T22:35:11.321Z,3.72
2023-03-07T22:37:37.925Z,3.73
2023-03-07T22:40:05.149Z,3.64
2023-03-07T22:42:31.792Z,3.55
2023-03-07T22:44:58.381Z,3.47
2023-03-07T22:47:25.010Z,3.42
2023-03-07T22:49:51.577Z,3.56
2023-03-07T22:52:18.246Z,3.64
2023-03-07T22:54:44.820Z,3.64
2023-03-07T22:57:11.436Z,3.67
2023-03-07T22:59:38.052Z,3.63
2023-03-07T23:02:04.680Z,3.69
2023-03-07T23:04:31.316Z,3.67
2023-03-07T23:06:57.946Z,3.69
2023-03-07T23:09:24.568Z,3.71
2023-03-07T23:11:51.219Z,3.65
2023-03-07T23:14:17.795Z,3.64
2023-03-07T23:16:44.522Z,3.70
2023-03-07T23:19:11.208Z,4.02
2023-03-07T23:21:37.821Z,3.61
2023-03-07T23:24:04.861Z,3.65
2023-03-07T23:26:36.867Z,3.52
2023-03-07T23:29:05.827Z,3.52
2023-03-07T23:31:35.636Z,3.59
2023-03-07T23:34:05.150Z,3.59
2023-03-07T23:36:32.684Z,3.67
2023-03-07T23:39:00.083Z,3.71
2023-03-07T23:41:27.428Z,3.50
2023-03-07T23:43:55.902Z,3.30
2023-03-07T23:46:23.107Z,3.29
2023-03-07T23:48:49.898Z,3.36
2023-03-07T23:51:16.702Z,3.35
2023-03-07T23:53:43.360Z,3.53
2023-03-07T23:56:10.764Z,3.57
2023-03-07T23:58:37.823Z,3.57
